createdAt,value
2017-09-16T00:00:40.574Z,0
2017-09-16T00:01:40.854Z,0
2017-09-16T00:02:40.517Z,0
2017-09-16T00:03:40.808Z,0
2017-09-16T00:04:40.792Z,0
2017-09-16T00:05:40.757Z,0
2017-09-16T00:06:40.738Z,0
2017-09-16T00:07:40.711Z,0
2017-09-16T00:08:40.687Z,0
2017-09-16T00:09:40.652Z,0
2017-09-16T00:10:40.636Z,0
2017-09-16T00:11:40.313Z,0
2017-09-16T00:12:40.585Z,0
2017-09-16T00:13:40.765Z,0
2017-09-16T00:14:40.552Z,0
2017-09-16T00:15:40.261Z,0
2017-09-16T00:16:40.506Z,0
2017-09-16T00:17:40.173Z,0
2017-09-16T00:18:40.458Z,0
2017-09-16T00:19:40.439Z,0
2017-09-16T00:20:40.094Z,0
2017-09-16T00:21:40.068Z,0
2017-09-16T00:22:40.359Z,0
2017-09-16T00:23:40.324Z,0
2017-09-16T00:24:40.304Z,0
2017-09-16T00:25:40.285Z,0
2017-09-16T00:26:39.953Z,0
2017-09-16T00:27:40.255Z,0
2017-09-16T00:28:40.661Z,0
2017-09-16T00:29:40.198Z,0
2017-09-16T00:30:40.166Z,0
2017-09-16T00:31:40.180Z,0
2017-09-16T00:32:40.120Z,0
2017-09-16T00:33:40.097Z,0
2017-09-16T00:34:39.759Z,0
2017-09-16T00:35:40.059Z,0
2017-09-16T00:36:40.024Z,0
2017-09-16T00:37:39.682Z,0
2017-09-16T00:38:39.977Z,0
2017-09-16T00:39:40.002Z,0
2017-09-16T00:40:39.923Z,0
2017-09-16T00:41:39.900Z,0
2017-09-16T00:42:39.874Z,0
2017-09-16T00:43:39.859Z,0
2017-09-16T00:44:39.844Z,0
2017-09-16T00:45:39.857Z,0
2017-09-16T00:46:39.787Z,0
2017-09-16T00:47:39.760Z,0
2017-09-16T00:48:39.745Z,0
2017-09-16T00:49:39.413Z,0
2017-09-16T00:50:39.689Z,0
2017-09-16T00:51:39.423Z,0
2017-09-16T00:52:39.674Z,0
2017-09-16T00:53:39.617Z,0
2017-09-16T00:54:39.290Z,0
2017-09-16T00:55:39.573Z,0
2017-09-16T00:56:39.545Z,0
2017-09-16T00:57:39.522Z,0
2017-09-16T00:58:39.537Z,0
2017-09-16T00:59:39.192Z,0
2017-09-16T01:00:39.148Z,0
2017-09-16T01:01:39.500Z,0
2017-09-16T01:02:39.406Z,0
2017-09-16T01:03:39.385Z,0
2017-09-16T01:04:39.357Z,0
2017-09-16T01:05:39.025Z,0
2017-09-16T01:06:39.307Z,0
2017-09-16T01:07:38.974Z,0
2017-09-16T01:08:39.254Z,0
2017-09-16T01:09:39.235Z,0
2017-09-16T01:10:39.208Z,0
2017-09-16T01:11:39.191Z,0
2017-09-16T01:12:38.850Z,0
2017-09-16T01:13:39.154Z,0
2017-09-16T01:14:39.111Z,0
2017-09-16T01:15:39.094Z,0
2017-09-16T01:16:38.761Z,0
2017-09-16T01:17:39.052Z,0
2017-09-16T01:18:39.030Z,0
2017-09-16T01:19:39.002Z,0
2017-09-16T01:20:38.980Z,0
2017-09-16T01:21:38.940Z,0
2017-09-16T01:22:38.932Z,0
2017-09-16T01:23:38.590Z,0
2017-09-16T01:24:38.879Z,0
2017-09-16T01:25:38.856Z,0
2017-09-16T01:26:38.847Z,0
2017-09-16T01:27:38.820Z,0
2017-09-16T01:28:38.836Z,0
2017-09-16T01:29:38.789Z,0
2017-09-16T01:30:38.735Z,0
2017-09-16T01:31:38.713Z,0
2017-09-16T01:32:38.727Z,0
2017-09-16T01:33:38.666Z,0
2017-09-16T01:34:38.335Z,0
2017-09-16T01:35:38.620Z,0
2017-09-16T01:36:38.593Z,0
2017-09-16T01:37:38.576Z,0
2017-09-16T01:38:38.546Z,0
2017-09-16T01:39:38.518Z,0
2017-09-16T01:40:38.189Z,0
2017-09-16T01:41:38.474Z,0
2017-09-16T01:42:38.457Z,0
2017-09-16T01:43:38.124Z,0
2017-09-16T01:44:38.457Z,0
2017-09-16T01:45:38.382Z,0
2017-09-16T01:46:38.066Z,0
2017-09-16T01:47:38.371Z,0
2017-09-16T01:48:38.329Z,0
2017-09-16T01:49:38.284Z,0
2017-09-16T01:50:38.255Z,0
2017-09-16T01:51:38.240Z,0
2017-09-16T01:52:38.203Z,0
2017-09-16T01:53:38.181Z,0
2017-09-16T01:54:38.177Z,0
2017-09-16T01:55:38.197Z,0
2017-09-16T01:56:38.126Z,0
2017-09-16T01:57:38.085Z,0
2017-09-16T01:58:38.090Z,0
2017-09-16T01:59:38.055Z,0
2017-09-16T02:00:38.020Z,0
2017-09-16T02:01:37.695Z,0
2017-09-16T02:02:37.982Z,0
2017-09-16T02:03:37.984Z,0
2017-09-16T02:04:37.940Z,0
2017-09-16T02:05:37.894Z,0
2017-09-16T02:06:37.878Z,0
2017-09-16T02:07:37.859Z,0
2017-09-16T02:08:37.520Z,0
2017-09-16T02:09:37.810Z,0
2017-09-16T02:10:37.474Z,0
2017-09-16T02:11:37.752Z,0
2017-09-16T02:12:37.737Z,0
2017-09-16T02:13:37.704Z,0
2017-09-16T02:14:37.370Z,0
2017-09-16T02:15:37.682Z,0
2017-09-16T02:16:37.696Z,0
2017-09-16T02:17:37.606Z,0
2017-09-16T02:18:37.594Z,0
2017-09-16T02:19:37.568Z,0
2017-09-16T02:20:37.545Z,0
2017-09-16T02:21:37.560Z,0
2017-09-16T02:22:37.501Z,0
2017-09-16T02:23:37.159Z,0
2017-09-16T02:24:37.449Z,0
2017-09-16T02:25:37.425Z,0
2017-09-16T02:26:37.401Z,0
2017-09-16T02:27:37.573Z,0
2017-09-16T02:28:37.353Z,0
2017-09-16T02:29:37.325Z,0
2017-09-16T02:30:37.520Z,0
2017-09-16T02:31:37.328Z,0
2017-09-16T02:32:36.940Z,0
2017-09-16T02:33:37.232Z,0
2017-09-16T02:34:36.955Z,0
2017-09-16T02:35:37.185Z,0
2017-09-16T02:36:37.152Z,0
2017-09-16T02:37:36.830Z,0
2017-09-16T02:38:37.125Z,0
2017-09-16T02:39:37.092Z,0
2017-09-16T02:40:37.061Z,0
2017-09-16T02:41:37.050Z,0
2017-09-16T02:42:36.710Z,0
2017-09-16T02:43:36.991Z,0
2017-09-16T02:44:36.658Z,0
2017-09-16T02:45:36.956Z,0
2017-09-16T02:46:36.913Z,0
2017-09-16T02:47:36.901Z,0
2017-09-16T02:48:36.862Z,0
2017-09-16T02:49:36.840Z,0
2017-09-16T02:50:36.520Z,0
2017-09-16T02:51:36.488Z,0
2017-09-16T02:52:36.527Z,0
2017-09-16T02:53:36.773Z,0
2017-09-16T02:54:36.731Z,0
2017-09-16T02:55:36.711Z,0
2017-09-16T02:56:36.677Z,0
2017-09-16T02:57:36.338Z,0
2017-09-16T02:58:36.629Z,0
2017-09-16T02:59:36.307Z,0
2017-09-16T03:00:36.610Z,0
2017-09-16T03:01:36.245Z,0
2017-09-16T03:02:36.537Z,0
2017-09-16T03:03:36.522Z,0
2017-09-16T03:04:36.479Z,0
2017-09-16T03:05:36.464Z,0
2017-09-16T03:06:36.486Z,0
2017-09-16T03:07:36.102Z,0
2017-09-16T03:08:36.393Z,0
2017-09-16T03:09:50.973Z,0
2017-09-16T03:10:36.342Z,0
2017-09-16T03:11:35.402Z,0
2017-09-16T03:12:35.988Z,0
2017-09-16T03:13:36.274Z,0
2017-09-16T03:14:36.243Z,0
2017-09-16T03:15:36.216Z,0
2017-09-16T03:16:35.887Z,0
2017-09-16T03:17:35.867Z,0
2017-09-16T03:18:36.152Z,0
2017-09-16T03:19:36.125Z,0
2017-09-16T03:20:36.126Z,0
2017-09-16T03:21:36.140Z,0
2017-09-16T03:22:36.070Z,0
2017-09-16T03:23:35.429Z,0
2017-09-16T03:24:36.007Z,0
2017-09-16T03:25:36.200Z,0
2017-09-16T03:26:35.960Z,0
2017-09-16T03:27:35.933Z,0
2017-09-16T03:28:35.912Z,0
2017-09-16T03:29:35.889Z,0
2017-09-16T03:30:35.888Z,0
2017-09-16T03:31:35.830Z,0
2017-09-16T03:32:35.822Z,0
2017-09-16T03:33:35.786Z,0
2017-09-16T03:34:35.457Z,0
2017-09-16T03:35:35.440Z,0
2017-09-16T03:36:35.416Z,0
2017-09-16T03:37:35.707Z,0
2017-09-16T03:38:35.669Z,0
2017-09-16T03:39:35.663Z,0
2017-09-16T03:40:35.625Z,0
2017-09-16T03:41:35.315Z,0
2017-09-16T03:42:35.581Z,0
2017-09-16T03:43:35.560Z,0
2017-09-16T03:44:35.529Z,0
2017-09-16T03:45:35.505Z,0
2017-09-16T03:46:35.505Z,0
2017-09-16T03:47:35.159Z,0
2017-09-16T03:48:35.430Z,0
2017-09-16T03:49:35.412Z,0
2017-09-16T03:50:35.077Z,0
2017-09-16T03:51:35.096Z,0
2017-09-16T03:52:35.347Z,0
2017-09-16T03:53:35.316Z,0
2017-09-16T03:54:35.291Z,0
2017-09-16T03:55:34.967Z,0
2017-09-16T03:56:35.256Z,0
2017-09-16T03:57:35.225Z,0
2017-09-16T03:58:35.195Z,0
2017-09-16T03:59:35.178Z,0
2017-09-16T04:00:34.849Z,0
2017-09-16T04:01:35.138Z,0
2017-09-16T04:02:35.096Z,0
2017-09-16T04:03:35.116Z,0
2017-09-16T04:04:34.752Z,0
2017-09-16T04:05:34.733Z,0
2017-09-16T04:06:35.022Z,0
2017-09-16T04:07:34.988Z,0
2017-09-16T04:08:34.687Z,0
2017-09-16T04:09:34.932Z,0
2017-09-16T04:10:34.609Z,0
2017-09-16T04:11:34.592Z,0
2017-09-16T04:12:34.560Z,0
2017-09-16T04:13:34.851Z,0
2017-09-16T04:14:34.825Z,0
2017-09-16T04:15:34.801Z,0
2017-09-16T04:16:34.776Z,0
2017-09-16T04:17:34.746Z,0
2017-09-16T04:18:34.733Z,0
2017-09-16T04:19:34.704Z,0
2017-09-16T04:20:34.683Z,0
2017-09-16T04:21:34.659Z,0
2017-09-16T04:22:34.635Z,0
2017-09-16T04:23:34.609Z,0
2017-09-16T04:24:34.633Z,0
2017-09-16T04:25:34.564Z,0
2017-09-16T04:26:34.547Z,0
2017-09-16T04:27:34.518Z,0
2017-09-16T04:28:34.507Z,0
2017-09-16T04:29:34.474Z,0
2017-09-16T04:30:34.451Z,0
2017-09-16T04:31:34.421Z,0
2017-09-16T04:32:34.446Z,0
2017-09-16T04:33:34.365Z,0
2017-09-16T04:34:34.348Z,0
2017-09-16T04:35:34.330Z,0
2017-09-16T04:36:33.991Z,0
2017-09-16T04:37:33.972Z,0
2017-09-16T04:38:34.255Z,0
2017-09-16T04:39:34.244Z,0
2017-09-16T04:40:33.907Z,0
2017-09-16T04:41:34.193Z,0
2017-09-16T04:42:34.159Z,0
2017-09-16T04:43:34.145Z,0
2017-09-16T04:44:34.118Z,0
2017-09-16T04:45:34.125Z,0
2017-09-16T04:46:34.077Z,0
2017-09-16T04:47:34.038Z,0
2017-09-16T04:48:34.023Z,0
2017-09-16T04:49:34.001Z,0
2017-09-16T04:50:33.682Z,0
2017-09-16T04:51:33.951Z,0
2017-09-16T04:52:33.934Z,0
2017-09-16T04:53:33.927Z,0
2017-09-16T04:54:33.878Z,0
2017-09-16T04:55:33.851Z,0
2017-09-16T04:56:34.075Z,0
2017-09-16T04:57:33.825Z,0
2017-09-16T04:58:33.785Z,0
2017-09-16T04:59:33.773Z,0
2017-09-16T05:00:33.746Z,0
2017-09-16T05:01:33.721Z,0
2017-09-16T05:02:33.744Z,0
2017-09-16T05:03:33.875Z,0
2017-09-16T05:04:33.682Z,0
2017-09-16T05:05:33.316Z,0
2017-09-16T05:06:33.609Z,0
2017-09-16T05:07:33.580Z,5
2017-09-16T05:08:33.551Z,5
2017-09-16T05:09:33.545Z,5
2017-09-16T05:10:33.202Z,5
2017-09-16T05:11:33.479Z,5
2017-09-16T05:12:33.470Z,5
2017-09-16T05:13:33.445Z,5
2017-09-16T05:14:33.468Z,5
2017-09-16T05:15:33.410Z,5
2017-09-16T05:16:33.379Z,10
2017-09-16T05:17:33.033Z,10
2017-09-16T05:18:33.331Z,10
2017-09-16T05:19:33.297Z,10
2017-09-16T05:20:33.286Z,10
2017-09-16T05:21:32.950Z,10
2017-09-16T05:22:33.229Z,10
2017-09-16T05:23:33.220Z,10
2017-09-16T05:24:33.172Z,10
2017-09-16T05:25:33.396Z,10
2017-09-16T05:26:33.143Z,15
2017-09-16T05:27:33.328Z,15
2017-09-16T05:28:32.770Z,15
2017-09-16T05:29:33.318Z,15
2017-09-16T05:30:33.044Z,15
2017-09-16T05:31:33.020Z,15
2017-09-16T05:32:32.994Z,15
2017-09-16T05:33:32.966Z,15
2017-09-16T05:34:32.955Z,20
2017-09-16T05:35:32.926Z,20
2017-09-16T05:36:32.606Z,20
2017-09-16T05:37:32.897Z,20
2017-09-16T05:38:32.863Z,20
2017-09-16T05:39:32.839Z,25
2017-09-16T05:40:32.809Z,25
2017-09-16T05:41:32.789Z,25
2017-09-16T05:42:32.761Z,25
2017-09-16T05:43:32.738Z,25
2017-09-16T05:44:32.725Z,30
2017-09-16T05:45:32.693Z,30
2017-09-16T05:46:32.667Z,30
2017-09-16T05:47:32.642Z,30
2017-09-16T05:48:32.650Z,35
2017-09-16T05:49:32.601Z,35
2017-09-16T05:50:32.578Z,35
2017-09-16T05:51:32.240Z,35
2017-09-16T05:52:32.527Z,35
2017-09-16T05:53:32.502Z,35
2017-09-16T05:54:32.481Z,35
2017-09-16T05:55:32.467Z,35
2017-09-16T05:56:32.443Z,40
2017-09-16T05:57:32.413Z,40
2017-09-16T05:58:32.391Z,45
2017-09-16T05:59:32.368Z,45
2017-09-16T06:00:32.031Z,50
2017-09-16T06:01:32.314Z,50
2017-09-16T06:02:32.297Z,55
2017-09-16T06:03:32.268Z,55
2017-09-16T06:04:32.247Z,55
2017-09-16T06:05:32.226Z,60
2017-09-16T06:06:32.199Z,60
2017-09-16T06:07:32.179Z,60
2017-09-16T06:08:46.792Z,65
2017-09-16T06:09:31.851Z,65
2017-09-16T06:10:32.108Z,65
2017-09-16T06:11:32.091Z,70
2017-09-16T06:12:32.061Z,70
2017-09-16T06:13:32.039Z,70
2017-09-16T06:14:32.082Z,70
2017-09-16T06:15:31.999Z,70
2017-09-16T06:16:31.361Z,70
2017-09-16T06:17:31.949Z,75
2017-09-16T06:18:31.940Z,75
2017-09-16T06:19:31.894Z,75
2017-09-16T06:20:31.887Z,75
2017-09-16T06:21:31.863Z,75
2017-09-16T06:22:31.884Z,80
2017-09-16T06:23:31.812Z,80
2017-09-16T06:24:31.790Z,80
2017-09-16T06:25:31.459Z,80
2017-09-16T06:26:31.744Z,80
2017-09-16T06:27:31.717Z,85
2017-09-16T06:28:31.692Z,85
2017-09-16T06:29:31.664Z,85
2017-09-16T06:30:31.678Z,95
2017-09-16T06:31:45.924Z,95
2017-09-16T06:32:31.617Z,95
2017-09-16T06:33:31.569Z,100
2017-09-16T06:34:31.556Z,100
2017-09-16T06:35:31.531Z,100
2017-09-16T06:36:31.514Z,105
2017-09-16T06:37:31.489Z,105
2017-09-16T06:38:31.465Z,105
2017-09-16T06:39:31.443Z,105
2017-09-16T06:40:31.427Z,110
2017-09-16T06:41:31.090Z,115
2017-09-16T06:42:31.377Z,115
2017-09-16T06:43:31.353Z,120
2017-09-16T06:44:31.328Z,120
2017-09-16T06:45:31.305Z,125
2017-09-16T06:46:31.289Z,130
2017-09-16T06:47:31.267Z,130
2017-09-16T06:48:31.231Z,140
2017-09-16T06:49:31.220Z,145
2017-09-16T06:51:31.179Z,165
2017-09-16T06:52:31.151Z,170
2017-09-16T06:53:31.129Z,170
2017-09-16T06:54:31.102Z,170
2017-09-16T06:55:31.072Z,180
2017-09-16T06:56:31.050Z,180
2017-09-16T06:57:31.087Z,175
2017-09-16T06:58:31.013Z,170
2017-09-16T06:59:30.985Z,170
2017-09-16T07:00:31.007Z,170
2017-09-16T07:01:30.939Z,190
2017-09-16T07:02:30.919Z,325
2017-09-16T07:03:30.893Z,335
2017-09-16T07:04:31.078Z,475
2017-09-16T07:05:30.858Z,485
2017-09-16T07:06:30.877Z,495
2017-09-16T07:07:30.820Z,505
2017-09-16T07:08:30.785Z,510
2017-09-16T07:09:30.770Z,515
2017-09-16T07:10:30.736Z,520
2017-09-16T07:11:30.718Z,530
2017-09-16T07:12:30.702Z,530
2017-09-16T07:13:30.683Z,555
2017-09-16T07:14:30.654Z,590
2017-09-16T07:15:30.036Z,610
2017-09-16T07:16:30.614Z,595
2017-09-16T07:17:30.600Z,635
2017-09-16T07:18:30.574Z,635
2017-09-16T07:19:30.626Z,650
2017-09-16T07:20:30.532Z,660
2017-09-16T07:21:30.511Z,665
2017-09-16T07:22:30.490Z,685
2017-09-16T07:23:30.475Z,670
2017-09-16T07:24:30.453Z,685
2017-09-16T07:25:30.455Z,695
2017-09-16T07:26:30.163Z,705
2017-09-16T07:27:30.143Z,725
2017-09-16T07:28:30.081Z,730
2017-09-16T07:29:29.755Z,780
2017-09-16T07:30:30.353Z,780
2017-09-16T07:31:30.332Z,815
2017-09-16T07:32:30.320Z,810
2017-09-16T07:33:30.009Z,835
2017-09-16T07:34:30.327Z,845
2017-09-16T07:35:30.274Z,840
2017-09-16T07:36:30.241Z,845
2017-09-16T07:37:30.232Z,910
2017-09-16T07:38:29.914Z,885
2017-09-16T07:39:29.898Z,915
2017-09-16T07:40:29.879Z,950
2017-09-16T07:41:30.166Z,820
2017-09-16T07:42:30.201Z,615
2017-09-16T07:43:30.133Z,690
2017-09-16T07:44:29.813Z,565
2017-09-16T07:45:30.117Z,535
2017-09-16T07:46:30.095Z,565
2017-09-16T07:47:30.080Z,830
2017-09-16T07:48:30.113Z,350
2017-09-16T07:49:30.043Z,835
2017-09-16T07:50:30.034Z,1030
2017-09-16T07:51:30.051Z,1055
2017-09-16T07:52:30.001Z,1095
2017-09-16T07:53:29.382Z,1125
2017-09-16T07:54:29.982Z,1080
2017-09-16T07:55:29.956Z,1170
2017-09-16T07:56:29.989Z,1205
2017-09-16T07:57:29.923Z,1240
2017-09-16T07:58:29.592Z,1245
2017-09-16T07:59:29.900Z,1260
2017-09-16T08:00:29.575Z,1245
2017-09-16T08:01:29.908Z,1220
2017-09-16T08:02:29.551Z,1245
2017-09-16T08:03:29.834Z,810
2017-09-16T08:04:29.825Z,845
2017-09-16T08:05:29.495Z,775
2017-09-16T08:06:29.795Z,735
2017-09-16T08:07:29.789Z,615
2017-09-16T08:08:29.460Z,615
2017-09-16T08:09:29.764Z,680
2017-09-16T08:10:29.757Z,755
2017-09-16T08:11:29.737Z,700
2017-09-16T08:12:29.403Z,720
2017-09-16T08:13:29.393Z,690
2017-09-16T08:14:29.901Z,845
2017-09-16T08:15:29.775Z,1330
2017-09-16T08:16:29.658Z,1305
2017-09-16T08:17:29.633Z,1250
2017-09-16T08:18:29.316Z,955
2017-09-16T08:19:29.605Z,1240
2017-09-16T08:20:29.591Z,1280
2017-09-16T08:21:29.269Z,1250
2017-09-16T08:22:29.256Z,1240
2017-09-16T08:23:29.555Z,1240
2017-09-16T08:24:29.227Z,1230
2017-09-16T08:25:29.613Z,1240
2017-09-16T08:26:29.509Z,1290
2017-09-16T08:27:29.501Z,1290
2017-09-16T08:28:29.484Z,1275
2017-09-16T08:29:29.467Z,1300
2017-09-16T08:30:29.457Z,1300
2017-09-16T08:31:28.834Z,1280
2017-09-16T08:32:29.436Z,1315
2017-09-16T08:33:29.430Z,1320
2017-09-16T08:34:29.102Z,1325
2017-09-16T08:35:29.089Z,1310
2017-09-16T08:36:29.390Z,1230
2017-09-16T08:37:29.058Z,1165
2017-09-16T08:38:28.734Z,1080
2017-09-16T08:39:29.348Z,1010
2017-09-16T08:40:29.027Z,1070
2017-09-16T08:41:29.321Z,575
2017-09-16T08:42:29.367Z,980
2017-09-16T08:43:29.303Z,1025
2017-09-16T08:44:29.284Z,1095
2017-09-16T08:45:29.273Z,450
2017-09-16T08:46:29.254Z,1160
2017-09-16T08:47:29.260Z,895
2017-09-16T08:48:28.925Z,780
2017-09-16T08:49:29.231Z,540
2017-09-16T08:50:29.211Z,485
2017-09-16T08:51:28.886Z,415
2017-09-16T08:52:29.191Z,480
2017-09-16T08:53:29.171Z,1010
2017-09-16T08:54:29.232Z,430
2017-09-16T08:55:28.853Z,410
2017-09-16T08:56:29.126Z,475
2017-09-16T08:57:28.854Z,315
2017-09-16T08:58:29.117Z,885
2017-09-16T08:59:28.772Z,445
2017-09-16T09:00:29.121Z,465
2017-09-16T09:01:28.758Z,510
2017-09-16T09:02:29.050Z,960
2017-09-16T09:03:28.731Z,385
2017-09-16T09:04:28.718Z,320
2017-09-16T09:05:28.689Z,445
2017-09-16T09:06:28.667Z,495
2017-09-16T09:07:28.987Z,520
2017-09-16T09:08:28.633Z,510
2017-09-16T09:09:28.623Z,535
2017-09-16T09:10:28.668Z,475
2017-09-16T09:11:28.903Z,630
2017-09-16T09:12:28.888Z,410
2017-09-16T09:13:28.877Z,505
2017-09-16T09:14:28.845Z,460
2017-09-16T09:15:28.882Z,400
2017-09-16T09:16:28.599Z,485
2017-09-16T09:17:28.796Z,500
2017-09-16T09:18:28.779Z,490
2017-09-16T09:19:28.800Z,505
2017-09-16T09:20:28.750Z,425
2017-09-16T09:21:28.727Z,425
2017-09-16T09:22:28.706Z,345
2017-09-16T09:23:28.391Z,305
2017-09-16T09:24:28.687Z,275
2017-09-16T09:25:28.670Z,240
2017-09-16T09:26:28.646Z,295
2017-09-16T09:27:28.616Z,380
2017-09-16T09:28:28.596Z,305
2017-09-16T09:29:28.598Z,280
2017-09-16T09:30:28.251Z,320
2017-09-16T09:31:28.241Z,1030
2017-09-16T09:32:27.604Z,1225
2017-09-16T09:33:28.553Z,365
2017-09-16T09:34:28.481Z,1090
2017-09-16T09:35:28.466Z,1105
2017-09-16T09:36:28.145Z,570
2017-09-16T09:37:28.463Z,365
2017-09-16T09:38:28.420Z,1280
2017-09-16T09:39:28.402Z,600
2017-09-16T09:40:28.376Z,1220
2017-09-16T09:41:28.057Z,450
2017-09-16T09:42:28.339Z,365
2017-09-16T09:43:28.014Z,460
2017-09-16T09:44:28.309Z,1095
2017-09-16T09:45:28.294Z,1330
2017-09-16T09:46:28.273Z,425
2017-09-16T09:47:28.243Z,880
2017-09-16T09:48:28.237Z,1290
2017-09-16T09:49:28.211Z,425
2017-09-16T09:50:28.298Z,380
2017-09-16T09:51:28.184Z,520
2017-09-16T09:52:28.154Z,485
2017-09-16T09:53:28.150Z,355
2017-09-16T09:54:28.123Z,330
2017-09-16T09:55:27.806Z,480
2017-09-16T09:56:27.779Z,395
2017-09-16T09:57:28.070Z,345
2017-09-16T09:58:28.053Z,435
2017-09-16T09:59:28.043Z,420
2017-09-16T10:00:28.019Z,360
2017-09-16T10:01:27.692Z,305
2017-09-16T10:02:27.986Z,255
2017-09-16T10:03:27.968Z,240
2017-09-16T10:04:27.951Z,375
2017-09-16T10:05:27.620Z,410
2017-09-16T10:06:27.914Z,380
2017-09-16T10:07:27.904Z,340
2017-09-16T10:08:27.882Z,300
2017-09-16T10:09:27.867Z,285
2017-09-16T10:10:27.838Z,300
2017-09-16T10:11:27.817Z,335
2017-09-16T10:12:27.802Z,370
2017-09-16T10:13:27.790Z,420
2017-09-16T10:14:27.763Z,405
2017-09-16T10:15:27.490Z,390
2017-09-16T10:16:27.465Z,340
2017-09-16T10:17:27.406Z,320
2017-09-16T10:18:27.374Z,280
2017-09-16T10:19:27.660Z,265
2017-09-16T10:20:27.344Z,355
2017-09-16T10:21:27.628Z,400
2017-09-16T10:22:27.619Z,500
2017-09-16T10:23:27.601Z,530
2017-09-16T10:24:27.563Z,490
2017-09-16T10:25:27.239Z,500
2017-09-16T10:26:27.224Z,475
2017-09-16T10:27:27.520Z,455
2017-09-16T10:28:27.496Z,500
2017-09-16T10:29:27.481Z,520
2017-09-16T10:30:27.450Z,515
2017-09-16T10:31:27.445Z,460
2017-09-16T10:32:27.160Z,445
2017-09-16T10:33:27.442Z,540
2017-09-16T10:34:27.075Z,570
2017-09-16T10:35:27.357Z,560
2017-09-16T10:36:27.376Z,480
2017-09-16T10:37:27.315Z,395
2017-09-16T10:38:27.302Z,440
2017-09-16T10:39:26.972Z,440
2017-09-16T10:40:27.262Z,480
2017-09-16T10:41:27.239Z,485
2017-09-16T10:42:27.222Z,555
2017-09-16T10:43:27.194Z,580
2017-09-16T10:44:27.198Z,550
2017-09-16T10:45:26.912Z,580
2017-09-16T10:46:26.846Z,525
2017-09-16T10:47:27.195Z,405
2017-09-16T10:48:27.160Z,420
2017-09-16T10:49:27.092Z,475
2017-09-16T10:50:27.082Z,490
2017-09-16T10:51:27.053Z,555
2017-09-16T10:52:27.034Z,570
2017-09-16T10:53:27.014Z,585
2017-09-16T10:54:26.996Z,470
2017-09-16T10:55:26.973Z,400
2017-09-16T10:56:26.684Z,430
2017-09-16T10:57:26.933Z,360
2017-09-16T10:58:26.918Z,320
2017-09-16T10:59:26.584Z,300
2017-09-16T11:00:26.879Z,320
2017-09-16T11:01:26.854Z,420
2017-09-16T11:02:26.842Z,470
2017-09-16T11:03:26.825Z,425
2017-09-16T11:04:26.804Z,395
2017-09-16T11:05:26.779Z,350
2017-09-16T11:06:26.449Z,335
2017-09-16T11:07:26.491Z,360
2017-09-16T11:08:26.771Z,330
2017-09-16T11:09:26.703Z,335
2017-09-16T11:10:26.683Z,305
2017-09-16T11:11:26.661Z,360
2017-09-16T11:12:26.634Z,440
2017-09-16T11:13:26.621Z,475
2017-09-16T11:14:26.624Z,465
2017-09-16T11:15:26.594Z,485
2017-09-16T11:16:26.583Z,475
2017-09-16T11:17:26.552Z,485
2017-09-16T11:18:26.526Z,430
2017-09-16T11:19:26.531Z,405
2017-09-16T11:20:26.494Z,405
2017-09-16T11:21:26.477Z,435
2017-09-16T11:22:26.462Z,450
2017-09-16T11:23:26.118Z,465
2017-09-16T11:24:26.417Z,475
2017-09-16T11:25:26.386Z,480
2017-09-16T11:26:26.370Z,465
2017-09-16T11:27:26.366Z,480
2017-09-16T11:28:26.335Z,500
2017-09-16T11:29:26.321Z,500
2017-09-16T11:30:26.306Z,490
2017-09-16T11:31:26.291Z,465
2017-09-16T11:32:26.257Z,440
2017-09-16T11:33:26.238Z,420
2017-09-16T11:34:26.249Z,395
2017-09-16T11:35:26.206Z,375
2017-09-16T11:36:26.191Z,335
2017-09-16T11:37:26.217Z,275
2017-09-16T11:38:26.142Z,215
2017-09-16T11:39:26.171Z,170
2017-09-16T11:40:26.100Z,140
2017-09-16T11:41:26.139Z,120
2017-09-16T11:42:26.065Z,105
2017-09-16T11:43:26.049Z,85
2017-09-16T11:44:26.041Z,70
2017-09-16T11:45:25.748Z,55
2017-09-16T11:46:26.058Z,50
2017-09-16T11:47:25.977Z,50
2017-09-16T11:48:25.958Z,50
2017-09-16T11:49:25.637Z,55
2017-09-16T11:50:25.607Z,65
2017-09-16T11:51:25.972Z,75
2017-09-16T11:52:25.880Z,80
2017-09-16T11:53:25.552Z,85
2017-09-16T11:54:25.534Z,110
2017-09-16T11:55:25.203Z,130
2017-09-16T11:56:25.788Z,165
2017-09-16T11:57:25.774Z,205
2017-09-16T11:58:25.763Z,240
2017-09-16T11:59:25.473Z,245
2017-09-16T12:00:25.704Z,220
2017-09-16T12:01:25.707Z,190
2017-09-16T12:02:25.676Z,175
2017-09-16T12:03:25.394Z,160
2017-09-16T12:04:25.630Z,145
2017-09-16T12:05:25.608Z,130
2017-09-16T12:06:25.598Z,120
2017-09-16T12:07:25.561Z,115
2017-09-16T12:08:25.558Z,120
2017-09-16T12:09:25.220Z,190
2017-09-16T12:10:25.507Z,240
2017-09-16T12:11:25.527Z,260
2017-09-16T12:12:25.473Z,245
2017-09-16T12:13:25.451Z,245
2017-09-16T12:14:25.130Z,240
2017-09-16T12:15:25.102Z,220
2017-09-16T12:16:25.376Z,195
2017-09-16T12:17:25.363Z,180
2017-09-16T12:18:25.350Z,160
2017-09-16T12:19:25.328Z,135
2017-09-16T12:20:25.289Z,120
2017-09-16T12:21:25.293Z,110
2017-09-16T12:22:25.263Z,95
2017-09-16T12:23:24.934Z,90
2017-09-16T12:24:24.914Z,90
2017-09-16T12:25:24.939Z,90
2017-09-16T12:26:25.175Z,85
2017-09-16T12:27:24.843Z,80
2017-09-16T12:28:25.146Z,80
2017-09-16T12:29:25.130Z,90
2017-09-16T12:30:25.101Z,115
2017-09-16T12:31:25.080Z,155
2017-09-16T12:32:25.081Z,185
2017-09-16T12:33:25.020Z,200
2017-09-16T12:34:24.710Z,190
2017-09-16T12:35:24.981Z,195
2017-09-16T12:36:24.970Z,225
2017-09-16T12:37:24.951Z,270
2017-09-16T12:38:24.933Z,290
2017-09-16T12:39:24.898Z,290
2017-09-16T12:40:24.883Z,280
2017-09-16T12:41:24.886Z,280
2017-09-16T12:42:24.535Z,295
2017-09-16T12:43:24.511Z,305
2017-09-16T12:44:24.799Z,305
2017-09-16T12:45:24.785Z,295
2017-09-16T12:46:24.765Z,290
2017-09-16T12:47:24.733Z,285
2017-09-16T12:48:24.414Z,280
2017-09-16T12:49:24.700Z,280
2017-09-16T12:50:24.684Z,275
2017-09-16T12:51:24.674Z,270
2017-09-16T12:52:24.637Z,265
2017-09-16T12:53:24.623Z,265
2017-09-16T12:54:24.607Z,260
2017-09-16T12:55:24.604Z,245
2017-09-16T12:56:24.561Z,230
2017-09-16T12:57:24.538Z,225
2017-09-16T12:58:24.511Z,215
2017-09-16T12:59:24.492Z,210
2017-09-16T13:00:24.481Z,205
2017-09-16T13:01:24.450Z,200
2017-09-16T13:02:24.444Z,190
2017-09-16T13:03:24.115Z,185
2017-09-16T13:04:24.397Z,185
2017-09-16T13:05:24.375Z,185
2017-09-16T13:06:24.407Z,185
2017-09-16T13:07:24.048Z,185
2017-09-16T13:08:24.010Z,185
2017-09-16T13:09:24.291Z,180
2017-09-16T13:10:24.271Z,180
2017-09-16T13:11:24.291Z,175
2017-09-16T13:12:24.231Z,175
2017-09-16T13:13:24.195Z,190
2017-09-16T13:14:24.182Z,205
2017-09-16T13:15:24.165Z,230
2017-09-16T13:16:24.143Z,245
2017-09-16T13:17:23.816Z,260
2017-09-16T13:18:23.825Z,290
2017-09-16T13:19:24.085Z,310
2017-09-16T13:20:23.767Z,330
2017-09-16T13:21:23.735Z,340
2017-09-16T13:22:23.768Z,340
2017-09-16T13:23:24.000Z,340
2017-09-16T13:24:23.989Z,345
2017-09-16T13:25:23.989Z,350
2017-09-16T13:26:23.697Z,350
2017-09-16T13:27:23.619Z,350
2017-09-16T13:28:23.905Z,350
2017-09-16T13:29:23.877Z,355
2017-09-16T13:30:23.543Z,350
2017-09-16T13:31:23.533Z,355
2017-09-16T13:32:23.820Z,345
2017-09-16T13:33:23.496Z,340
2017-09-16T13:34:23.780Z,335
2017-09-16T13:35:23.784Z,340
2017-09-16T13:36:23.433Z,340
2017-09-16T13:37:23.414Z,330
2017-09-16T13:38:23.703Z,325
2017-09-16T13:39:23.069Z,315
2017-09-16T13:40:23.359Z,320
2017-09-16T13:41:23.329Z,325
2017-09-16T13:42:23.636Z,340
2017-09-16T13:43:23.611Z,350
2017-09-16T13:44:23.603Z,365
2017-09-16T13:45:23.615Z,370
2017-09-16T13:46:23.542Z,370
2017-09-16T13:47:23.224Z,365
2017-09-16T13:48:23.509Z,345
2017-09-16T13:49:23.488Z,340
2017-09-16T13:50:23.469Z,315
2017-09-16T13:51:23.445Z,305
2017-09-16T13:52:23.439Z,295
2017-09-16T13:53:23.406Z,295
2017-09-16T13:54:23.128Z,285
2017-09-16T13:55:23.363Z,280
2017-09-16T13:56:23.343Z,280
2017-09-16T13:57:23.334Z,290
2017-09-16T13:58:23.294Z,275
2017-09-16T13:59:23.286Z,260
2017-09-16T14:00:23.269Z,245
2017-09-16T14:01:23.245Z,235
2017-09-16T14:02:22.923Z,235
2017-09-16T14:03:23.208Z,240
2017-09-16T14:04:23.187Z,260
2017-09-16T14:05:23.216Z,270
2017-09-16T14:06:23.153Z,270
2017-09-16T14:07:23.179Z,275
2017-09-16T14:08:23.108Z,280
2017-09-16T14:09:23.088Z,290
2017-09-16T14:10:23.058Z,295